sensor_id;sensor_type;location;lat;lon;timestamp;P1;durP1;ratioP1;P2;durP2;ratioP2
71148;SDS011;59072;42.144;25.200;2022-10-22T00:02:11;17.92;;;11.40;;
71148;SDS011;59072;42.144;25.200;2022-10-22T00:04:40;20.55;;;10.35;;
71148;SDS011;59072;42.144;25.200;2022-10-22T00:07:05;20.17;;;10.20;;
71148;SDS011;59072;42.144;25.200;2022-10-22T00:09:31;18.17;;;9.80;;
71148;SDS011;59072;42.144;25.200;2022-10-22T00:11:56;17.92;;;9.95;;
71148;SDS011;59072;42.144;25.200;2022-10-22T00:14:21;21.27;;;10.73;;
71148;SDS011;59072;42.144;25.200;2022-10-22T00:16:47;41.75;;;18.42;;
71148;SDS011;59072;42.144;25.200;2022-10-22T00:19:12;30.10;;;14.15;;
71148;SDS011;59072;42.144;25.200;2022-10-22T00:21:38;26.38;;;11.13;;
71148;SDS011;59072;42.144;25.200;2022-10-22T00:24:04;24.40;;;11.50;;
71148;SDS011;59072;42.144;25.200;2022-10-22T00:26:30;22.98;;;11.23;;
71148;SDS011;59072;42.144;25.200;2022-10-22T00:28:55;23.23;;;11.20;;
71148;SDS011;59072;42.144;25.200;2022-10-22T00:31:20;22.30;;;11.02;;
71148;SDS011;59072;42.144;25.200;2022-10-22T00:33:46;20.20;;;10.95;;
71148;SDS011;59072;42.144;25.200;2022-10-22T00:36:12;22.52;;;12.07;;
71148;SDS011;59072;42.144;25.200;2022-10-22T00:38:38;21.63;;;10.90;;
71148;SDS011;59072;42.144;25.200;2022-10-22T00:41:04;22.15;;;11.18;;
71148;SDS011;59072;42.144;25.200;2022-10-22T00:43:30;25.30;;;11.95;;
71148;SDS011;59072;42.144;25.200;2022-10-22T00:45:56;22.17;;;10.40;;
71148;SDS011;59072;42.144;25.200;2022-10-22T00:48:25;20.50;;;10.07;;
71148;SDS011;59072;42.144;25.200;2022-10-22T00:50:58;19.15;;;10.45;;
71148;SDS011;59072;42.144;25.200;2022-10-22T00:53:37;20.52;;;9.93;;
71148;SDS011;59072;42.144;25.200;2022-10-22T00:56:05;24.77;;;9.73;;
71148;SDS011;59072;42.144;25.200;2022-10-22T00:58:32;16.65;;;9.68;;
71148;SDS011;59072;42.144;25.200;2022-10-22T01:01:00;18.98;;;9.95;;
71148;SDS011;59072;42.144;25.200;2022-10-22T01:03:27;15.60;;;8.48;;
71148;SDS011;59072;42.144;25.200;2022-10-22T01:05:56;14.02;;;8.43;;
71148;SDS011;59072;42.144;25.200;2022-10-22T01:11:25;16.70;;;8.25;;
71148;SDS011;59072;42.144;25.200;2022-10-22T01:13:57;22.30;;;9.50;;
71148;SDS011;59072;42.144;25.200;2022-10-22T01:16:43;24.17;;;10.60;;
71148;SDS011;59072;42.144;25.200;2022-10-22T01:21:45;21.75;;;10.02;;
71148;SDS011;59072;42.144;25.200;2022-10-22T01:24:26;24.92;;;12.23;;
71148;SDS011;59072;42.144;25.200;2022-10-22T01:27:02;22.00;;;11.32;;
71148;SDS011;59072;42.144;25.200;2022-10-22T01:29:42;18.08;;;9.20;;
71148;SDS011;59072;42.144;25.200;2022-10-22T01:32:14;14.82;;;7.25;;
71148;SDS011;59072;42.144;25.200;2022-10-22T01:34:43;15.73;;;8.10;;
71148;SDS011;59072;42.144;25.200;2022-10-22T01:37:13;16.63;;;8.90;;
71148;SDS011;59072;42.144;25.200;2022-10-22T01:39:42;16.95;;;8.18;;
71148;SDS011;59072;42.144;25.200;2022-10-22T01:42:11;14.68;;;7.78;;
71148;SDS011;59072;42.144;25.200;2022-10-22T01:44:37;13.43;;;8.55;;
71148;SDS011;59072;42.144;25.200;2022-10-22T01:58:12;24.13;;;12.98;;
71148;SDS011;59072;42.144;25.200;2022-10-22T02:00:53;25.02;;;13.38;;
71148;SDS011;59072;42.144;25.200;2022-10-22T02:03:25;25.95;;;13.73;;
71148;SDS011;59072;42.144;25.200;2022-10-22T02:05:55;25.08;;;13.35;;
71148;SDS011;59072;42.144;25.200;2022-10-22T02:08:30;29.33;;;13.88;;
71148;SDS011;59072;42.144;25.200;2022-10-22T02:10:57;21.90;;;12.32;;
71148;SDS011;59072;42.144;25.200;2022-10-22T02:13:28;20.60;;;10.35;;
71148;SDS011;59072;42.144;25.200;2022-10-22T02:15:57;17.48;;;8.60;;
71148;SDS011;59072;42.144;25.200;2022-10-22T02:18:25;18.42;;;9.90;;
71148;SDS011;59072;42.144;25.200;2022-10-22T02:20:54;23.85;;;10.52;;
71148;SDS011;59072;42.144;25.200;2022-10-22T02:23:20;22.67;;;11.80;;
71148;SDS011;59072;42.144;25.200;2022-10-22T02:25:47;24.85;;;14.73;;
71148;SDS011;59072;42.144;25.200;2022-10-22T02:28:21;19.70;;;9.88;;
71148;SDS011;59072;42.144;25.200;2022-10-22T02:30:58;22.23;;;10.10;;
71148;SDS011;59072;42.144;25.200;2022-10-22T02:33:31;26.65;;;14.23;;
71148;SDS011;59072;42.144;25.200;2022-10-22T02:36:01;35.65;;;16.70;;
71148;SDS011;59072;42.144;25.200;2022-10-22T02:38:28;29.52;;;16.50;;
71148;SDS011;59072;42.144;25.200;2022-10-22T02:40:54;27.13;;;17.10;;
71148;SDS011;59072;42.144;25.200;2022-10-22T02:43:20;23.67;;;12.18;;
71148;SDS011;59072;42.144;25.200;2022-10-22T02:45:48;22.00;;;10.95;;
71148;SDS011;59072;42.144;25.200;2022-10-22T02:48:13;17.52;;;10.68;;
71148;SDS011;59072;42.144;25.200;2022-10-22T02:50:39;25.33;;;11.45;;
71148;SDS011;59072;42.144;25.200;2022-10-22T02:53:04;22.75;;;11.88;;
71148;SDS011;59072;42.144;25.200;2022-10-22T02:55:30;23.10;;;10.85;;
71148;SDS011;59072;42.144;25.200;2022-10-22T02:57:55;19.63;;;11.45;;
71148;SDS011;59072;42.144;25.200;2022-10-22T03:00:21;21.67;;;11.70;;
71148;SDS011;59072;42.144;25.200;2022-10-22T03:02:47;20.33;;;10.10;;
71148;SDS011;59072;42.144;25.200;2022-10-22T03:05:12;21.33;;;11.32;;
71148;SDS011;59072;42.144;25.200;2022-10-22T03:07:37;20.08;;;10.68;;
71148;SDS011;59072;42.144;25.200;2022-10-22T03:10:03;20.35;;;10.70;;
71148;SDS011;59072;42.144;25.200;2022-10-22T03:12:29;20.02;;;11.75;;
71148;SDS011;59072;42.144;25.200;2022-10-22T03:14:55;20.90;;;11.55;;
71148;SDS011;59072;42.144;25.200;2022-10-22T03:17:20;23.73;;;12.18;;
71148;SDS011;59072;42.144;25.200;2022-10-22T03:19:45;22.15;;;11.55;;
71148;SDS011;59072;42.144;25.200;2022-10-22T03:22:12;19.33;;;11.80;;
71148;SDS011;59072;42.144;25.200;2022-10-22T03:24:45;19.55;;;11.10;;
71148;SDS011;59072;42.144;25.200;2022-10-22T03:27:14;22.80;;;11.43;;
71148;SDS011;59072;42.144;25.200;2022-10-22T03:29:42;19.45;;;11.10;;
71148;SDS011;59072;42.144;25.200;2022-10-22T03:32:08;19.70;;;11.60;;
71148;SDS011;59072;42.144;25.200;2022-10-22T03:34:34;23.88;;;12.60;;
71148;SDS011;59072;42.144;25.200;2022-10-22T03:36:59;21.67;;;12.13;;
71148;SDS011;59072;42.144;25.200;2022-10-22T03:39:26;22.25;;;13.25;;
71148;SDS011;59072;42.144;25.200;2022-10-22T03:41:55;18.63;;;12.88;;
71148;SDS011;59072;42.144;25.200;2022-10-22T03:44:21;19.60;;;12.30;;
71148;SDS011;59072;42.144;25.200;2022-10-22T03:46:48;22.65;;;12.90;;
71148;SDS011;59072;42.144;25.200;2022-10-22T03:49:13;21.95;;;13.55;;
71148;SDS011;59072;42.144;25.200;2022-10-22T03:51:39;21.10;;;12.90;;
71148;SDS011;59072;42.144;25.200;2022-10-22T03:54:04;22.30;;;12.85;;
71148;SDS011;59072;42.144;25.200;2022-10-22T03:56:30;26.08;;;13.60;;
71148;SDS011;59072;42.144;25.200;2022-10-22T03:58:56;21.70;;;12.93;;
71148;SDS011;59072;42.144;25.200;2022-10-22T04:01:23;22.20;;;13.43;;
71148;SDS011;59072;42.144;25.200;2022-10-22T04:03:49;23.88;;;13.80;;
71148;SDS011;59072;42.144;25.200;2022-10-22T04:06:15;20.60;;;12.80;;
71148;SDS011;59072;42.144;25.200;2022-10-22T04:08:41;21.42;;;13.10;;
71148;SDS011;59072;42.144;25.200;2022-10-22T04:11:08;21.92;;;12.25;;
71148;SDS011;59072;42.144;25.200;2022-10-22T04:13:34;18.42;;;11.63;;
71148;SDS011;59072;42.144;25.200;2022-10-22T04:16:14;23.67;;;12.98;;
71148;SDS011;59072;42.144;25.200;2022-10-22T04:18:42;25.42;;;11.93;;
71148;SDS011;59072;42.144;25.200;2022-10-22T04:21:09;19.50;;;12.75;;
71148;SDS011;59072;42.144;25.200;2022-10-22T04:23:37;22.97;;;11.63;;
71148;SDS011;59072;42.144;25.200;2022-10-22T04:26:04;23.67;;;12.77;;
71148;SDS011;59072;42.144;25.200;2022-10-22T04:28:31;19.45;;;11.82;;
71148;SDS011;59072;42.144;25.200;2022-10-22T04:30:58;23.98;;;12.27;;
71148;SDS011;59072;42.144;25.200;2022-10-22T04:33:23;24.45;;;12.10;;
71148;SDS011;59072;42.144;25.200;2022-10-22T04:35:49;25.83;;;11.95;;
71148;SDS011;59072;42.144;25.200;2022-10-22T04:38:14;30.25;;;12.80;;
71148;SDS011;59072;42.144;25.200;2022-10-22T04:40:40;24.75;;;13.18;;
71148;SDS011;59072;42.144;25.200;2022-10-22T04:43:06;21.67;;;13.23;;
71148;SDS011;59072;42.144;25.200;2022-10-22T04:45:32;24.63;;;14.07;;
71148;SDS011;59072;42.144;25.200;2022-10-22T04:47:58;19.95;;;13.05;;
71148;SDS011;59072;42.144;25.200;2022-10-22T04:50:24;20.50;;;13.02;;
71148;SDS011;59072;42.144;25.200;2022-10-22T04:52:49;33.90;;;17.98;;
71148;SDS011;59072;42.144;25.200;2022-10-22T04:55:14;34.50;;;19.67;;
71148;SDS011;59072;42.144;25.200;2022-10-22T04:57:40;36.28;;;19.40;;
71148;SDS011;59072;42.144;25.200;2022-10-22T05:00:06;34.40;;;20.45;;
71148;SDS011;59072;42.144;25.200;2022-10-22T05:02:32;38.13;;;20.70;;
71148;SDS011;59072;42.144;25.200;2022-10-22T05:04:57;104.90;;;39.47;;
71148;SDS011;59072;42.144;25.200;2022-10-22T05:07:23;62.97;;;27.83;;
71148;SDS011;59072;42.144;25.200;2022-10-22T05:09:48;50.40;;;21.77;;
71148;SDS011;59072;42.144;25.200;2022-10-22T05:12:14;39.47;;;18.70;;
71148;SDS011;59072;42.144;25.200;2022-10-22T05:14:39;37.92;;;17.63;;
71148;SDS011;59072;42.144;25.200;2022-10-22T05:17:05;32.03;;;16.13;;
71148;SDS011;59072;42.144;25.200;2022-10-22T05:19:30;39.00;;;18.55;;
71148;SDS011;59072;42.144;25.200;2022-10-22T05:21:58;34.03;;;17.17;;
71148;SDS011;59072;42.144;25.200;2022-10-22T05:24:25;37.03;;;16.80;;
71148;SDS011;59072;42.144;25.200;2022-10-22T05:26:52;45.88;;;23.10;;
71148;SDS011;59072;42.144;25.200;2022-10-22T05:29:19;44.95;;;19.83;;
71148;SDS011;59072;42.144;25.200;2022-10-22T05:31:46;51.35;;;23.20;;
71148;SDS011;59072;42.144;25.200;2022-10-22T05:34:12;54.13;;;23.08;;
71148;SDS011;59072;42.144;25.200;2022-10-22T05:36:37;46.45;;;20.35;;
71148;SDS011;59072;42.144;25.200;2022-10-22T05:39:03;41.28;;;19.60;;
71148;SDS011;59072;42.144;25.200;2022-10-22T05:41:29;37.50;;;18.40;;
71148;SDS011;59072;42.144;25.200;2022-10-22T05:43:55;35.70;;;16.23;;
71148;SDS011;59072;42.144;25.200;2022-10-22T05:46:24;32.40;;;15.68;;
71148;SDS011;59072;42.144;25.200;2022-10-22T05:48:52;27.13;;;15.63;;
71148;SDS011;59072;42.144;25.200;2022-10-22T05:51:23;31.35;;;15.85;;
71148;SDS011;59072;42.144;25.200;2022-10-22T05:53:53;30.88;;;17.25;;
71148;SDS011;59072;42.144;25.200;2022-10-22T05:56:23;34.75;;;17.20;;
71148;SDS011;59072;42.144;25.200;2022-10-22T05:58:50;34.33;;;16.90;;
71148;SDS011;59072;42.144;25.200;2022-10-22T06:01:20;38.05;;;19.80;;
71148;SDS011;59072;42.144;25.200;2022-10-22T06:03:47;43.58;;;28.83;;
71148;SDS011;59072;42.144;25.200;2022-10-22T06:06:18;43.90;;;28.05;;
71148;SDS011;59072;42.144;25.200;2022-10-22T06:08:46;40.05;;;25.42;;
71148;SDS011;59072;42.144;25.200;2022-10-22T06:11:13;40.03;;;22.63;;
71148;SDS011;59072;42.144;25.200;2022-10-22T06:13:41;32.08;;;21.17;;
71148;SDS011;59072;42.144;25.200;2022-10-22T06:16:07;32.28;;;20.95;;
71148;SDS011;59072;42.144;25.200;2022-10-22T06:18:33;33.28;;;22.92;;
71148;SDS011;59072;42.144;25.200;2022-10-22T06:21:09;40.22;;;25.80;;
71148;SDS011;59072;42.144;25.200;2022-10-22T06:23:36;41.20;;;23.88;;
71148;SDS011;59072;42.144;25.200;2022-10-22T06:26:03;31.10;;;19.13;;
71148;SDS011;59072;42.144;25.200;2022-10-22T06:28:28;34.65;;;19.35;;
71148;SDS011;59072;42.144;25.200;2022-10-22T06:30:56;33.38;;;18.10;;
71148;SDS011;59072;42.144;25.200;2022-10-22T06:33:25;26.15;;;14.30;;
71148;SDS011;59072;42.144;25.200;2022-10-22T06:35:51;29.45;;;15.30;;
71148;SDS011;59072;42.144;25.200;2022-10-22T06:38:17;33.50;;;18.05;;
71148;SDS011;59072;42.144;25.200;2022-10-22T06:40:42;25.75;;;13.25;;
71148;SDS011;59072;42.144;25.200;2022-10-22T06:43:09;24.10;;;13.07;;
71148;SDS011;59072;42.144;25.200;2022-10-22T06:45:35;20.33;;;11.75;;
71148;SDS011;59072;42.144;25.200;2022-10-22T06:48:01;16.33;;;10.35;;
71148;SDS011;59072;42.144;25.200;2022-10-22T06:50:26;17.25;;;10.48;;
71148;SDS011;59072;42.144;25.200;2022-10-22T06:52:52;29.85;;;15.40;;
71148;SDS011;59072;42.144;25.200;2022-10-22T06:55:17;14.95;;;9.75;;
71148;SDS011;59072;42.144;25.200;2022-10-22T06:57:42;18.23;;;8.70;;
71148;SDS011;59072;42.144;25.200;2022-10-22T07:00:08;19.25;;;11.20;;
71148;SDS011;59072;42.144;25.200;2022-10-22T07:02:34;15.85;;;9.55;;
71148;SDS011;59072;42.144;25.200;2022-10-22T07:04:59;15.68;;;9.35;;
71148;SDS011;59072;42.144;25.200;2022-10-22T07:07:25;37.40;;;20.13;;
71148;SDS011;59072;42.144;25.200;2022-10-22T07:09:50;22.30;;;11.90;;
71148;SDS011;59072;42.144;25.200;2022-10-22T07:12:15;24.10;;;15.55;;
71148;SDS011;59072;42.144;25.200;2022-10-22T07:14:41;32.30;;;19.92;;
71148;SDS011;59072;42.144;25.200;2022-10-22T07:17:07;70.47;;;45.75;;
71148;SDS011;59072;42.144;25.200;2022-10-22T07:19:32;18.55;;;9.65;;
71148;SDS011;59072;42.144;25.200;2022-10-22T07:21:58;19.98;;;11.63;;
71148;SDS011;59072;42.144;25.200;2022-10-22T07:24:23;27.73;;;17.52;;
71148;SDS011;59072;42.144;25.200;2022-10-22T07:26:49;22.75;;;11.82;;
71148;SDS011;59072;42.144;25.200;2022-10-22T07:29:14;22.15;;;14.98;;
71148;SDS011;59072;42.144;25.200;2022-10-22T07:31:40;29.88;;;17.48;;
71148;SDS011;59072;42.144;25.200;2022-10-22T07:34:06;15.75;;;8.38;;
71148;SDS011;59072;42.144;25.200;2022-10-22T07:36:31;13.15;;;6.70;;
71148;SDS011;59072;42.144;25.200;2022-10-22T07:38:57;13.35;;;6.93;;
71148;SDS011;59072;42.144;25.200;2022-10-22T07:41:24;21.48;;;8.45;;
71148;SDS011;59072;42.144;25.200;2022-10-22T07:43:50;15.60;;;7.70;;
71148;SDS011;59072;42.144;25.200;2022-10-22T07:46:15;11.32;;;6.65;;
71148;SDS011;59072;42.144;25.200;2022-10-22T07:48:41;14.60;;;7.82;;
71148;SDS011;59072;42.144;25.200;2022-10-22T07:51:06;13.05;;;7.03;;
71148;SDS011;59072;42.144;25.200;2022-10-22T07:53:32;13.45;;;7.97;;
71148;SDS011;59072;42.144;25.200;2022-10-22T07:55:57;14.98;;;8.27;;
71148;SDS011;59072;42.144;25.200;2022-10-22T07:58:23;12.85;;;8.00;;
71148;SDS011;59072;42.144;25.200;2022-10-22T08:00:49;13.50;;;7.85;;
71148;SDS011;59072;42.144;25.200;2022-10-22T08:03:16;14.32;;;8.57;;
71148;SDS011;59072;42.144;25.200;2022-10-22T08:05:42;14.88;;;8.90;;
71148;SDS011;59072;42.144;25.200;2022-10-22T08:08:08;14.18;;;8.77;;
71148;SDS011;59072;42.144;25.200;2022-10-22T08:10:35;15.73;;;8.00;;
71148;SDS011;59072;42.144;25.200;2022-10-22T08:13:01;11.63;;;7.32;;
71148;SDS011;59072;42.144;25.200;2022-10-22T08:15:26;13.93;;;7.75;;
71148;SDS011;59072;42.144;25.200;2022-10-22T08:17:52;17.08;;;9.02;;
71148;SDS011;59072;42.144;25.200;2022-10-22T08:20:17;12.45;;;7.43;;
71148;SDS011;59072;42.144;25.200;2022-10-22T08:22:43;15.18;;;8.93;;
71148;SDS011;59072;42.144;25.200;2022-10-22T08:25:09;14.60;;;9.60;;
71148;SDS011;59072;42.144;25.200;2022-10-22T08:27:35;15.48;;;9.05;;
71148;SDS011;59072;42.144;25.200;2022-10-22T08:30:01;14.02;;;8.95;;
71148;SDS011;59072;42.144;25.200;2022-10-22T08:32:29;12.38;;;9.07;;
71148;SDS011;59072;42.144;25.200;2022-10-22T08:34:55;15.55;;;8.93;;
71148;SDS011;59072;42.144;25.200;2022-10-22T08:37:20;14.10;;;8.90;;
71148;SDS011;59072;42.144;25.200;2022-10-22T08:39:46;13.13;;;8.95;;
71148;SDS011;59072;42.144;25.200;2022-10-22T08:50:43;14.10;;;9.55;;
71148;SDS011;59072;42.144;25.200;2022-10-22T08:53:12;14.20;;;9.10;;
71148;SDS011;59072;42.144;25.200;2022-10-22T08:55:39;14.43;;;9.57;;
71148;SDS011;59072;42.144;25.200;2022-10-22T08:58:10;12.23;;;8.60;;
71148;SDS011;59072;42.144;25.200;2022-10-22T09:01:20;13.20;;;9.30;;
71148;SDS011;59072;42.144;25.200;2022-10-22T09:03:54;13.88;;;8.18;;
71148;SDS011;59072;42.144;25.200;2022-10-22T09:06:26;14.65;;;9.40;;
71148;SDS011;59072;42.144;25.200;2022-10-22T09:08:53;17.10;;;8.55;;
71148;SDS011;59072;42.144;25.200;2022-10-22T09:11:24;14.43;;;8.93;;
71148;SDS011;59072;42.144;25.200;2022-10-22T09:13:56;12.98;;;8.57;;
71148;SDS011;59072;42.144;25.200;2022-10-22T09:21:31;17.95;;;9.63;;
71148;SDS011;59072;42.144;25.200;2022-10-22T09:28:52;16.98;;;10.07;;
71148;SDS011;59072;42.144;25.200;2022-10-22T09:31:17;15.50;;;10.43;;
71148;SDS011;59072;42.144;25.200;2022-10-22T09:33:44;17.83;;;10.63;;
71148;SDS011;59072;42.144;25.200;2022-10-22T09:36:16;13.90;;;9.80;;
71148;SDS011;59072;42.144;25.200;2022-10-22T09:38:46;15.77;;;10.70;;
71148;SDS011;59072;42.144;25.200;2022-10-22T09:41:16;370.38;;;247.20;;
71148;SDS011;59072;42.144;25.200;2022-10-22T09:43:47;22.02;;;12.20;;
71148;SDS011;59072;42.144;25.200;2022-10-22T09:46:15;15.82;;;11.95;;
71148;SDS011;59072;42.144;25.200;2022-10-22T09:48:45;17.95;;;11.18;;
71148;SDS011;59072;42.144;25.200;2022-10-22T09:51:24;140.15;;;63.03;;
71148;SDS011;59072;42.144;25.200;2022-10-22T09:54:01;18.38;;;12.05;;
71148;SDS011;59072;42.144;25.200;2022-10-22T09:56:41;19.77;;;11.95;;
71148;SDS011;59072;42.144;25.200;2022-10-22T09:59:17;18.55;;;11.35;;
71148;SDS011;59072;42.144;25.200;2022-10-22T10:01:54;18.67;;;12.27;;
71148;SDS011;59072;42.144;25.200;2022-10-22T10:04:21;64.00;;;32.70;;
71148;SDS011;59072;42.144;25.200;2022-10-22T10:06:51;49.38;;;27.38;;
71148;SDS011;59072;42.144;25.200;2022-10-22T10:09:20;20.83;;;14.48;;
71148;SDS011;59072;42.144;25.200;2022-10-22T10:25:23;71.05;;;41.08;;
71148;SDS011;59072;42.144;25.200;2022-10-22T10:27:57;19.75;;;11.70;;
71148;SDS011;59072;42.144;25.200;2022-10-22T10:33:31;14.27;;;10.32;;
71148;SDS011;59072;42.144;25.200;2022-10-22T10:36:09;18.00;;;10.35;;
71148;SDS011;59072;42.144;25.200;2022-10-22T10:41:45;16.92;;;9.82;;
71148;SDS011;59072;42.144;25.200;2022-10-22T10:47:30;14.50;;;9.48;;
71148;SDS011;59072;42.144;25.200;2022-10-22T10:50:19;242.10;;;136.00;;
71148;SDS011;59072;42.144;25.200;2022-10-22T10:52:53;16.05;;;10.02;;
71148;SDS011;59072;42.144;25.200;2022-10-22T10:55:47;14.77;;;9.88;;
71148;SDS011;59072;42.144;25.200;2022-10-22T11:01:40;13.93;;;9.02;;
71148;SDS011;59072;42.144;25.200;2022-10-22T11:07:06;16.77;;;10.23;;
71148;SDS011;59072;42.144;25.200;2022-10-22T11:09:42;35.40;;;19.83;;
71148;SDS011;59072;42.144;25.200;2022-10-22T11:12:14;53.95;;;30.55;;
71148;SDS011;59072;42.144;25.200;2022-10-22T11:17:46;45.05;;;22.85;;
71148;SDS011;59072;42.144;25.200;2022-10-22T11:20:15;83.82;;;38.72;;
71148;SDS011;59072;42.144;25.200;2022-10-22T11:22:51;15.65;;;9.55;;
71148;SDS011;59072;42.144;25.200;2022-10-22T11:25:45;16.40;;;11.00;;
71148;SDS011;59072;42.144;25.200;2022-10-22T11:28:15;13.37;;;8.73;;
71148;SDS011;59072;42.144;25.200;2022-10-22T11:30:48;11.52;;;8.38;;
71148;SDS011;59072;42.144;25.200;2022-10-22T11:33:26;13.52;;;8.38;;
71148;SDS011;59072;42.144;25.200;2022-10-22T11:35:58;15.88;;;8.48;;
71148;SDS011;59072;42.144;25.200;2022-10-22T11:38:26;14.82;;;8.43;;
71148;SDS011;59072;42.144;25.200;2022-10-22T11:40:58;28.45;;;16.92;;
71148;SDS011;59072;42.144;25.200;2022-10-22T11:43:27;16.33;;;10.10;;
71148;SDS011;59072;42.144;25.200;2022-10-22T11:48:40;12.15;;;8.38;;
71148;SDS011;59072;42.144;25.200;2022-10-22T11:53:56;12.10;;;8.52;;
71148;SDS011;59072;42.144;25.200;2022-10-22T11:56:26;13.45;;;8.00;;
71148;SDS011;59072;42.144;25.200;2022-10-22T11:59:07;11.43;;;7.75;;
71148;SDS011;59072;42.144;25.200;2022-10-22T12:04:53;14.98;;;9.18;;
71148;SDS011;59072;42.144;25.200;2022-10-22T12:07:31;13.25;;;8.20;;
71148;SDS011;59072;42.144;25.200;2022-10-22T12:09:58;14.93;;;9.38;;
71148;SDS011;59072;42.144;25.200;2022-10-22T12:12:24;14.63;;;9.15;;
71148;SDS011;59072;42.144;25.200;2022-10-22T12:14:57;11.85;;;8.10;;
71148;SDS011;59072;42.144;25.200;2022-10-22T12:17:23;11.13;;;8.32;;
71148;SDS011;59072;42.144;25.200;2022-10-22T12:25:21;23.20;;;9.10;;
71148;SDS011;59072;42.144;25.200;2022-10-22T12:27:49;10.70;;;8.27;;
71148;SDS011;59072;42.144;25.200;2022-10-22T12:32:49;18.98;;;11.05;;
71148;SDS011;59072;42.144;25.200;2022-10-22T12:35:18;12.68;;;8.52;;
71148;SDS011;59072;42.144;25.200;2022-10-22T12:38:04;13.52;;;8.75;;
71148;SDS011;59072;42.144;25.200;2022-10-22T12:40:38;12.75;;;7.82;;
71148;SDS011;59072;42.144;25.200;2022-10-22T12:43:12;11.35;;;7.75;;
71148;SDS011;59072;42.144;25.200;2022-10-22T12:45:38;11.65;;;8.88;;
71148;SDS011;59072;42.144;25.200;2022-10-22T12:48:05;13.80;;;7.65;;
71148;SDS011;59072;42.144;25.200;2022-10-22T12:50:42;14.07;;;8.40;;
71148;SDS011;59072;42.144;25.200;2022-10-22T12:53:14;13.45;;;8.13;;
71148;SDS011;59072;42.144;25.200;2022-10-22T12:55:47;10.52;;;7.90;;
71148;SDS011;59072;42.144;25.200;2022-10-22T12:58:16;11.68;;;7.38;;
71148;SDS011;59072;42.144;25.200;2022-10-22T13:00:45;14.27;;;8.43;;
71148;SDS011;59072;42.144;25.200;2022-10-22T13:03:24;11.57;;;7.57;;
71148;SDS011;59072;42.144;25.200;2022-10-22T13:05:52;12.15;;;7.85;;
71148;SDS011;59072;42.144;25.200;2022-10-22T13:08:20;10.35;;;8.27;;
71148;SDS011;59072;42.144;25.200;2022-10-22T13:10:51;11.60;;;7.85;;
71148;SDS011;59072;42.144;25.200;2022-10-22T13:13:31;13.68;;;8.05;;
71148;SDS011;59072;42.144;25.200;2022-10-22T13:18:52;11.40;;;7.88;;
71148;SDS011;59072;42.144;25.200;2022-10-22T13:21:28;11.68;;;8.80;;
71148;SDS011;59072;42.144;25.200;2022-10-22T13:23:59;12.50;;;8.32;;
71148;SDS011;59072;42.144;25.200;2022-10-22T13:26:33;14.45;;;7.88;;
71148;SDS011;59072;42.144;25.200;2022-10-22T13:29:01;11.63;;;7.85;;
71148;SDS011;59072;42.144;25.200;2022-10-22T13:31:33;12.00;;;7.15;;
71148;SDS011;59072;42.144;25.200;2022-10-22T13:34:02;10.35;;;7.47;;
71148;SDS011;59072;42.144;25.200;2022-10-22T13:36:33;11.93;;;7.93;;
71148;SDS011;59072;42.144;25.200;2022-10-22T13:39:00;10.27;;;7.30;;
71148;SDS011;59072;42.144;25.200;2022-10-22T13:41:27;13.55;;;8.18;;
71148;SDS011;59072;42.144;25.200;2022-10-22T13:43:57;11.55;;;7.85;;
71148;SDS011;59072;42.144;25.200;2022-10-22T13:46:23;31.23;;;9.90;;
71148;SDS011;59072;42.144;25.200;2022-10-22T13:48:50;12.27;;;7.78;;
71148;SDS011;59072;42.144;25.200;2022-10-22T13:53:48;12.00;;;7.47;;
71148;SDS011;59072;42.144;25.200;2022-10-22T13:58:42;25.35;;;10.18;;
71148;SDS011;59072;42.144;25.200;2022-10-22T14:01:19;13.73;;;7.63;;
71148;SDS011;59072;42.144;25.200;2022-10-22T14:03:46;11.00;;;8.15;;
71148;SDS011;59072;42.144;25.200;2022-10-22T14:06:13;12.10;;;8.05;;
71148;SDS011;59072;42.144;25.200;2022-10-22T14:08:40;9.02;;;6.72;;
71148;SDS011;59072;42.144;25.200;2022-10-22T14:11:08;14.38;;;7.78;;
71148;SDS011;59072;42.144;25.200;2022-10-22T14:13:35;17.05;;;8.40;;
71148;SDS011;59072;42.144;25.200;2022-10-22T14:16:00;16.20;;;7.50;;
71148;SDS011;59072;42.144;25.200;2022-10-22T14:18:29;16.92;;;7.97;;
71148;SDS011;59072;42.144;25.200;2022-10-22T14:20:58;9.77;;;7.47;;
71148;SDS011;59072;42.144;25.200;2022-10-22T14:23:26;12.77;;;7.88;;
71148;SDS011;59072;42.144;25.200;2022-10-22T14:25:53;11.07;;;7.05;;
71148;SDS011;59072;42.144;25.200;2022-10-22T14:28:20;14.20;;;7.15;;
71148;SDS011;59072;42.144;25.200;2022-10-22T14:30:45;12.15;;;7.80;;
71148;SDS011;59072;42.144;25.200;2022-10-22T14:33:15;10.57;;;6.70;;
71148;SDS011;59072;42.144;25.200;2022-10-22T14:35:43;13.10;;;7.40;;
71148;SDS011;59072;42.144;25.200;2022-10-22T14:38:09;13.68;;;7.85;;
71148;SDS011;59072;42.144;25.200;2022-10-22T14:40:34;26.25;;;13.15;;
71148;SDS011;59072;42.144;25.200;2022-10-22T14:43:03;56.67;;;36.45;;
71148;SDS011;59072;42.144;25.200;2022-10-22T14:45:29;18.92;;;12.00;;
71148;SDS011;59072;42.144;25.200;2022-10-22T14:47:55;16.60;;;9.93;;
71148;SDS011;59072;42.144;25.200;2022-10-22T14:50:21;16.67;;;9.18;;
71148;SDS011;59072;42.144;25.200;2022-10-22T14:52:48;25.73;;;13.02;;
71148;SDS011;59072;42.144;25.200;2022-10-22T14:55:14;26.13;;;11.52;;
71148;SDS011;59072;42.144;25.200;2022-10-22T14:57:41;39.95;;;16.67;;
71148;SDS011;59072;42.144;25.200;2022-10-22T15:00:08;39.28;;;18.10;;
71148;SDS011;59072;42.144;25.200;2022-10-22T15:02:36;119.68;;;56.35;;
71148;SDS011;59072;42.144;25.200;2022-10-22T15:05:02;115.28;;;52.08;;
71148;SDS011;59072;42.144;25.200;2022-10-22T15:07:28;243.70;;;113.13;;
71148;SDS011;59072;42.144;25.200;2022-10-22T15:09:53;291.77;;;131.82;;
71148;SDS011;59072;42.144;25.200;2022-10-22T15:12:19;113.50;;;51.63;;
71148;SDS011;59072;42.144;25.200;2022-10-22T15:14:45;83.90;;;38.90;;
71148;SDS011;59072;42.144;25.200;2022-10-22T15:17:11;111.70;;;53.75;;
71148;SDS011;59072;42.144;25.200;2022-10-22T15:19:37;87.30;;;43.00;;
71148;SDS011;59072;42.144;25.200;2022-10-22T15:22:03;102.95;;;45.50;;
71148;SDS011;59072;42.144;25.200;2022-10-22T15:24:29;180.57;;;64.47;;
71148;SDS011;59072;42.144;25.200;2022-10-22T15:26:56;280.20;;;110.65;;
71148;SDS011;59072;42.144;25.200;2022-10-22T15:29:21;344.27;;;141.30;;
71148;SDS011;59072;42.144;25.200;2022-10-22T15:31:48;775.53;;;399.95;;
71148;SDS011;59072;42.144;25.200;2022-10-22T15:34:23;535.95;;;257.58;;
71148;SDS011;59072;42.144;25.200;2022-10-22T15:36:53;505.40;;;203.93;;
71148;SDS011;59072;42.144;25.200;2022-10-22T15:39:21;166.88;;;70.30;;
71148;SDS011;59072;42.144;25.200;2022-10-22T15:41:47;120.65;;;43.05;;
71148;SDS011;59072;42.144;25.200;2022-10-22T15:44:14;195.48;;;69.13;;
71148;SDS011;59072;42.144;25.200;2022-10-22T15:46:44;364.17;;;127.75;;
71148;SDS011;59072;42.144;25.200;2022-10-22T15:49:10;425.60;;;170.82;;
71148;SDS011;59072;42.144;25.200;2022-10-22T15:51:37;347.58;;;127.90;;
71148;SDS011;59072;42.144;25.200;2022-10-22T15:54:02;312.98;;;74.20;;